createdAt,value
2022-08-12T00:00:15.187Z,1012.00
2022-08-12T00:01:14.915Z,1011.97
2022-08-12T00:02:14.915Z,1011.97
2022-08-12T00:03:15.038Z,1012.02
2022-08-12T00:04:14.939Z,1011.99
2022-08-12T00:05:14.847Z,1011.96
2022-08-12T00:06:15.039Z,1011.97
2022-08-12T00:07:14.825Z,1011.96
2022-08-12T00:08:14.805Z,1011.91
2022-08-12T00:09:14.956Z,1011.93
2022-08-12T00:10:14.869Z,1011.92
2022-08-12T00:11:14.807Z,1011.90
2022-08-12T00:12:14.785Z,1011.93
2022-08-12T00:13:14.895Z,1011.92
2022-08-12T00:14:14.862Z,1011.92
2022-08-12T00:15:14.905Z,1011.90
2022-08-12T00:16:14.819Z,1011.85
2022-08-12T00:17:14.916Z,1011.87
2022-08-12T00:18:14.803Z,1011.89
2022-08-12T00:19:14.727Z,1011.89
2022-08-12T00:20:14.632Z,1011.90
2022-08-12T00:21:14.761Z,1011.92
2022-08-12T00:22:14.610Z,1011.88
2022-08-12T00:23:14.681Z,1011.89
2022-08-12T00:24:14.768Z,1011.87
2022-08-12T00:25:14.641Z,1011.88
2022-08-12T00:26:23.546Z,1011.89
2022-08-12T00:27:14.619Z,1011.85
2022-08-12T00:28:14.675Z,1011.86
2022-08-12T00:29:14.786Z,1011.87
2022-08-12T00:30:14.625Z,1011.91
2022-08-12T00:31:14.713Z,1011.90
2022-08-12T00:32:19.481Z,1011.93
2022-08-12T00:33:14.584Z,1011.92
2022-08-12T00:34:14.774Z,1011.95
2022-08-12T00:35:14.488Z,1011.96
2022-08-12T00:36:18.649Z,1011.94
2022-08-12T00:37:14.643Z,1011.92
2022-08-12T00:38:14.461Z,1011.92
2022-08-12T00:39:14.701Z,1011.94
2022-08-12T00:40:14.608Z,1011.94
2022-08-12T00:41:14.443Z,1011.93
2022-08-12T00:42:14.466Z,1011.91
2022-08-12T00:43:14.523Z,1011.90
2022-08-12T00:44:15.213Z,1011.92
2022-08-12T00:45:14.556Z,1011.92
2022-08-12T00:46:14.379Z,1011.90
2022-08-12T00:47:24.648Z,1011.90
2022-08-12T00:48:14.451Z,1011.88
2022-08-12T00:49:14.438Z,1011.88
2022-08-12T00:50:14.497Z,1011.88
2022-08-12T00:51:14.471Z,1011.89
2022-08-12T00:52:14.603Z,1011.87
2022-08-12T00:53:14.638Z,1011.86
2022-08-12T00:54:14.438Z,1011.85
2022-08-12T00:55:14.336Z,1011.96
2022-08-12T00:56:14.413Z,1011.92
2022-08-12T00:57:14.307Z,1011.94
2022-08-12T00:58:14.365Z,1011.96
2022-08-12T00:59:14.404Z,1011.97
2022-08-12T01:00:14.357Z,1011.97
2022-08-12T01:01:14.433Z,1011.97
2022-08-12T01:02:14.562Z,1012.00
2022-08-12T01:03:14.374Z,1011.98
2022-08-12T01:04:14.218Z,1011.96
2022-08-12T01:05:14.241Z,1011.97
2022-08-12T01:06:14.323Z,1011.97
2022-08-12T01:07:14.415Z,1011.96
2022-08-12T01:08:14.477Z,1011.97
2022-08-12T01:09:14.270Z,1011.99
2022-08-12T01:10:14.168Z,1012.00
2022-08-12T01:11:14.610Z,1012.01
2022-08-12T01:12:14.097Z,1011.96
2022-08-12T01:13:19.234Z,1011.94
2022-08-12T01:14:14.221Z,1011.95
2022-08-12T01:15:14.269Z,1011.95
2022-08-12T01:16:14.118Z,1011.90
2022-08-12T01:17:14.254Z,1011.94
2022-08-12T01:18:14.193Z,1011.92
2022-08-12T01:19:15.175Z,1011.93
2022-08-12T01:20:14.167Z,1011.95
2022-08-12T01:21:14.057Z,1011.96
2022-08-12T01:22:14.292Z,1011.96
2022-08-12T01:23:14.044Z,1012.01
2022-08-12T01:24:29.704Z,1011.97
2022-08-12T01:25:14.209Z,1011.95
2022-08-12T01:26:14.219Z,1011.94
2022-08-12T01:27:14.413Z,1011.98
2022-08-12T01:28:13.921Z,1011.98
2022-08-12T01:29:14.117Z,1011.99
2022-08-12T01:30:14.043Z,1011.99
2022-08-12T01:31:16.358Z,1011.98
2022-08-12T01:32:14.027Z,1011.96
2022-08-12T01:33:14.145Z,1011.97
2022-08-12T01:34:28.477Z,1011.97
2022-08-12T01:35:14.049Z,1011.98
2022-08-12T01:36:13.823Z,1011.98
2022-08-12T01:37:14.015Z,1011.99
2022-08-12T01:38:14.027Z,1011.98
2022-08-12T01:39:13.932Z,1012.00
2022-08-12T01:40:35.056Z,1011.96
2022-08-12T01:41:13.835Z,1012.01
2022-08-12T01:42:13.776Z,1012.01
2022-08-12T01:43:13.985Z,1011.97
2022-08-12T01:44:13.916Z,1012.00
2022-08-12T01:45:13.750Z,1012.01
2022-08-12T01:46:13.972Z,1012.05
2022-08-12T01:47:13.798Z,1012.01
2022-08-12T01:48:13.792Z,1011.98
2022-08-12T01:49:13.943Z,1012.01
2022-08-12T01:50:13.976Z,1011.98
2022-08-12T01:51:13.661Z,1011.93
2022-08-12T01:52:22.827Z,1012.00
2022-08-12T01:53:13.724Z,1012.01
2022-08-12T01:54:13.600Z,1011.98
2022-08-12T01:55:13.775Z,1011.96
2022-08-12T01:56:13.787Z,1011.93
2022-08-12T01:57:13.734Z,1011.98
2022-08-12T01:58:13.669Z,1011.98
2022-08-12T01:59:13.726Z,1012.00
2022-08-12T02:00:13.542Z,1011.99
2022-08-12T02:01:13.629Z,1011.99
2022-08-12T02:02:13.670Z,1011.95
2022-08-12T02:03:13.694Z,1011.97
2022-08-12T02:04:13.782Z,1011.99
2022-08-12T02:05:13.633Z,1011.97
2022-08-12T02:06:13.522Z,1011.95
2022-08-12T02:07:13.704Z,1011.92
2022-08-12T02:08:13.574Z,1011.91
2022-08-12T02:09:13.522Z,1011.89
2022-08-12T02:10:50.996Z,1011.89
2022-08-12T02:11:13.530Z,1011.91
2022-08-12T02:12:13.438Z,1011.92
2022-08-12T02:13:13.556Z,1011.98
2022-08-12T02:14:13.697Z,1012.00
2022-08-12T02:15:13.581Z,1011.95
2022-08-12T02:16:13.461Z,1011.98
2022-08-12T02:17:13.436Z,1011.99
2022-08-12T02:18:13.569Z,1011.98
2022-08-12T02:19:22.279Z,1011.96
2022-08-12T02:20:13.449Z,1011.98
2022-08-12T02:21:13.484Z,1011.97
2022-08-12T02:22:13.430Z,1012.00
2022-08-12T02:23:13.417Z,1011.97
2022-08-12T02:24:13.490Z,1011.98
2022-08-12T02:25:13.380Z,1011.93
2022-08-12T02:26:13.414Z,1011.95
2022-08-12T02:27:13.522Z,1011.95
2022-08-12T02:28:13.390Z,1011.92
2022-08-12T02:29:13.235Z,1011.93
2022-08-12T02:30:13.593Z,1011.92
2022-08-12T02:31:13.248Z,1011.95
2022-08-12T02:32:13.190Z,1011.90
2022-08-12T02:33:14.509Z,1011.92
2022-08-12T02:34:13.322Z,1011.93
2022-08-12T02:35:13.267Z,1011.98
2022-08-12T02:36:13.616Z,1011.91
2022-08-12T02:37:13.119Z,1011.98
2022-08-12T02:38:13.212Z,1011.92
2022-08-12T02:39:13.176Z,1011.98
2022-08-12T02:40:13.309Z,1011.97
2022-08-12T02:41:13.518Z,1011.97
2022-08-12T02:42:13.479Z,1011.92
2022-08-12T02:43:13.195Z,1011.97
2022-08-12T02:44:13.110Z,1011.91
2022-08-12T02:45:13.284Z,1011.94
2022-08-12T02:46:14.815Z,1011.98
2022-08-12T02:47:55.873Z,1011.96
2022-08-12T02:48:13.121Z,1011.95
2022-08-12T02:49:13.036Z,1011.97
2022-08-12T02:50:13.094Z,1011.93
2022-08-12T02:51:13.246Z,1011.98
2022-08-12T02:52:13.083Z,1011.93
2022-08-12T02:53:13.296Z,1011.92
2022-08-12T02:54:13.148Z,1011.95
2022-08-12T02:55:13.210Z,1011.94
2022-08-12T02:56:13.092Z,1011.95
2022-08-12T02:57:13.094Z,1011.95
2022-08-12T02:58:14.783Z,1011.93
2022-08-12T02:59:13.316Z,1011.96
2022-08-12T03:00:12.988Z,1012.01
2022-08-12T03:01:12.909Z,1011.98
2022-08-12T03:02:12.901Z,1012.00
2022-08-12T03:03:13.060Z,1012.01
2022-08-12T03:04:15.303Z,1011.99
2022-08-12T03:05:13.015Z,1011.98
2022-08-12T03:06:13.019Z,1011.97
2022-08-12T03:07:12.791Z,1011.97
2022-08-12T03:08:31.433Z,1011.97
2022-08-12T03:09:12.881Z,1011.97
2022-08-12T03:10:17.934Z,1011.97
2022-08-12T03:11:14.375Z,1011.94
2022-08-12T03:12:13.775Z,1011.97
2022-08-12T03:13:12.789Z,1011.94
2022-08-12T03:14:12.809Z,1011.95
2022-08-12T03:15:12.820Z,1012.01
2022-08-12T03:16:12.778Z,1011.98
2022-08-12T03:17:12.919Z,1011.97
2022-08-12T03:18:24.806Z,1011.98
2022-08-12T03:19:12.860Z,1011.97
2022-08-12T03:20:12.760Z,1011.98
2022-08-12T03:21:12.927Z,1011.94
2022-08-12T03:22:12.703Z,1011.90
2022-08-12T03:23:23.059Z,1011.90
2022-08-12T03:24:12.701Z,1011.90
2022-08-12T03:25:12.860Z,1011.88
2022-08-12T03:26:12.758Z,1011.87
2022-08-12T03:27:12.742Z,1011.88
2022-08-12T03:28:24.008Z,1011.88
2022-08-12T03:29:12.682Z,1011.90
2022-08-12T03:30:12.633Z,1011.86
2022-08-12T03:31:12.645Z,1011.88
2022-08-12T03:32:35.820Z,1011.86
2022-08-12T03:33:12.764Z,1011.90
2022-08-12T03:34:12.670Z,1011.86
2022-08-12T03:35:41.351Z,1011.85
2022-08-12T03:36:12.758Z,1011.87
2022-08-12T03:37:12.713Z,1011.91
2022-08-12T03:38:12.602Z,1011.90
2022-08-12T03:39:12.534Z,1011.91
2022-08-12T03:40:13.023Z,1011.94
2022-08-12T03:41:12.477Z,1011.91
2022-08-12T03:42:12.528Z,1011.93
2022-08-12T03:43:12.586Z,1011.88
2022-08-12T03:44:12.634Z,1011.89
2022-08-12T03:45:12.455Z,1011.88
2022-08-12T03:46:12.505Z,1011.94
2022-08-12T03:47:12.461Z,1011.93
2022-08-12T03:48:18.654Z,1011.95
2022-08-12T03:49:12.484Z,1011.93
2022-08-12T03:50:12.434Z,1011.94
2022-08-12T03:51:12.268Z,1011.94
2022-08-12T03:52:12.373Z,1011.95
2022-08-12T03:53:12.627Z,1011.92
2022-08-12T03:54:12.265Z,1011.93
2022-08-12T03:55:12.306Z,1011.93
2022-08-12T03:56:12.427Z,1011.95
2022-08-12T03:57:12.474Z,1011.95
2022-08-12T03:58:12.477Z,1011.99
2022-08-12T03:59:12.537Z,1011.97
2022-08-12T04:00:12.721Z,1011.98
2022-08-12T04:01:12.563Z,1011.96
2022-08-12T04:02:12.220Z,1012.01
2022-08-12T04:03:13.008Z,1012.00
2022-08-12T04:04:12.275Z,1012.00
2022-08-12T04:05:12.261Z,1011.99
2022-08-12T04:06:12.376Z,1012.01
2022-08-12T04:07:12.221Z,1012.01
2022-08-12T04:08:12.178Z,1011.94
2022-08-12T04:09:14.534Z,1011.99
2022-08-12T04:10:12.207Z,1011.96
2022-08-12T04:11:12.161Z,1011.96
2022-08-12T04:12:12.373Z,1011.95
2022-08-12T04:13:12.087Z,1011.95
2022-08-12T04:14:12.067Z,1011.98
2022-08-12T04:15:12.424Z,1011.98
2022-08-12T04:16:12.197Z,1011.92
2022-08-12T04:17:12.482Z,1011.95
2022-08-12T04:18:12.418Z,1011.94
2022-08-12T04:19:12.153Z,1011.98
2022-08-12T04:20:12.136Z,1011.95
2022-08-12T04:21:12.115Z,1011.95
2022-08-12T04:22:12.308Z,1011.91
2022-08-12T04:23:11.961Z,1011.94
2022-08-12T04:24:11.991Z,1011.96
2022-08-12T04:25:12.162Z,1011.94
2022-08-12T04:26:12.089Z,1011.96
2022-08-12T04:27:12.038Z,1011.96
2022-08-12T04:28:13.780Z,1011.96
2022-08-12T04:29:11.925Z,1011.92
2022-08-12T04:30:30.607Z,1011.94
2022-08-12T04:31:11.934Z,1011.90
2022-08-12T04:32:11.866Z,1011.91
2022-08-12T04:33:11.777Z,1011.89
2022-08-12T04:34:12.070Z,1011.89
2022-08-12T04:35:11.998Z,1011.89
2022-08-12T04:36:11.857Z,1011.89
2022-08-12T04:37:11.812Z,1011.90
2022-08-12T04:38:11.890Z,1011.91
2022-08-12T04:39:11.787Z,1011.93
2022-08-12T04:40:11.855Z,1011.93
2022-08-12T04:41:12.108Z,1011.93
2022-08-12T04:42:11.984Z,1011.96
2022-08-12T04:44:00.147Z,1011.94
2022-08-12T04:44:11.761Z,1011.94
2022-08-12T04:45:11.698Z,1011.96
2022-08-12T04:46:11.924Z,1011.95
2022-08-12T04:47:11.737Z,1011.95
2022-08-12T04:48:11.835Z,1011.95
2022-08-12T04:49:12.127Z,1011.91
2022-08-12T04:50:34.013Z,1011.92
2022-08-12T04:51:11.766Z,1011.87
2022-08-12T04:52:11.852Z,1011.87
2022-08-12T04:53:11.639Z,1011.86
2022-08-12T04:54:11.788Z,1011.87
2022-08-12T04:55:11.834Z,1011.85
2022-08-12T04:56:11.792Z,1011.83
2022-08-12T04:57:11.563Z,1011.86
2022-08-12T04:58:11.687Z,1011.90
2022-08-12T04:59:11.835Z,1011.93
2022-08-12T05:00:11.875Z,1011.92
2022-08-12T05:01:11.649Z,1011.92
2022-08-12T05:02:16.594Z,1011.96
2022-08-12T05:03:11.715Z,1011.98
2022-08-12T05:04:11.552Z,1011.92
2022-08-12T05:05:11.668Z,1011.92
2022-08-12T05:06:11.634Z,1011.89
2022-08-12T05:07:11.513Z,1011.92
2022-08-12T05:08:11.559Z,1011.91
2022-08-12T05:09:13.370Z,1011.90
2022-08-12T05:10:11.581Z,1011.92
2022-08-12T05:11:11.551Z,1011.93
2022-08-12T05:12:11.416Z,1011.92
2022-08-12T05:13:11.599Z,1011.92
2022-08-12T05:14:11.529Z,1011.95
2022-08-12T05:15:19.164Z,1011.96
2022-08-12T05:16:11.415Z,1011.97
2022-08-12T05:17:11.502Z,1011.95
2022-08-12T05:18:20.347Z,1011.94
2022-08-12T05:19:12.880Z,1011.97
2022-08-12T05:20:11.353Z,1012.03
2022-08-12T05:21:11.889Z,1011.96
2022-08-12T05:22:11.382Z,1011.97
2022-08-12T05:23:13.344Z,1011.95
2022-08-12T05:24:11.268Z,1011.98
2022-08-12T05:25:11.373Z,1011.96
2022-08-12T05:26:11.650Z,1011.99
2022-08-12T05:27:11.432Z,1011.99
2022-08-12T05:28:11.448Z,1011.99
2022-08-12T05:29:11.257Z,1012.02
2022-08-12T05:30:13.323Z,1012.02
2022-08-12T05:31:11.343Z,1011.96
2022-08-12T05:32:11.267Z,1011.98
2022-08-12T05:33:11.200Z,1011.98
2022-08-12T05:34:11.485Z,1012.01
2022-08-12T05:35:11.421Z,1011.97
2022-08-12T05:36:11.192Z,1012.00
2022-08-12T05:37:11.266Z,1012.01
2022-08-12T05:38:11.186Z,1012.02
2022-08-12T05:39:11.217Z,1012.03
2022-08-12T05:40:11.749Z,1012.01
2022-08-12T05:41:11.298Z,1011.97
2022-08-12T05:42:11.520Z,1011.99
2022-08-12T05:43:11.153Z,1011.95
2022-08-12T05:44:11.156Z,1011.98
2022-08-12T05:45:11.101Z,1012.02
2022-08-12T05:46:11.221Z,1011.99
2022-08-12T05:47:11.076Z,1012.00
2022-08-12T05:48:11.523Z,1012.00
2022-08-12T05:49:11.102Z,1011.94
2022-08-12T05:50:10.946Z,1011.93
2022-08-12T05:51:11.001Z,1011.97
2022-08-12T05:52:11.143Z,1011.97
2022-08-12T05:53:10.983Z,1011.92
2022-08-12T05:54:11.099Z,1011.95
2022-08-12T05:55:11.689Z,1011.92
2022-08-12T05:56:10.997Z,1011.95
2022-08-12T05:57:10.906Z,1011.98
2022-08-12T05:58:11.078Z,1011.93
2022-08-12T05:59:11.582Z,1011.97
2022-08-12T06:00:11.298Z,1011.96
2022-08-12T06:02:11.231Z,1011.98
2022-08-12T06:02:17.585Z,1012.00
2022-08-12T06:03:10.812Z,1012.01
2022-08-12T06:04:10.752Z,1012.00
2022-08-12T06:05:10.860Z,1012.01
2022-08-12T06:06:10.703Z,1012.01
2022-08-12T06:08:00.793Z,1012.03
2022-08-12T06:08:10.692Z,1012.04
2022-08-12T06:09:10.654Z,1012.04
2022-08-12T06:10:10.872Z,1012.03
2022-08-12T06:11:10.644Z,1012.00
2022-08-12T06:12:10.676Z,1012.02
2022-08-12T06:13:10.661Z,1012.03
2022-08-12T06:14:11.873Z,1012.04
2022-08-12T06:15:10.623Z,1012.02
2022-08-12T06:16:10.592Z,1012.04
2022-08-12T06:17:10.581Z,1012.04
2022-08-12T06:18:13.806Z,1012.05
2022-08-12T06:19:10.611Z,1012.04
2022-08-12T06:20:25.859Z,1012.06
2022-08-12T06:21:10.527Z,1012.03
2022-08-12T06:22:10.672Z,1012.01
2022-08-12T06:23:10.522Z,1012.01
2022-08-12T06:24:10.688Z,1012.03
2022-08-12T06:25:10.576Z,1012.03
2022-08-12T06:26:10.515Z,1012.08
2022-08-12T06:27:10.602Z,1012.04
2022-08-12T06:28:10.782Z,1012.05
2022-08-12T06:29:10.626Z,1012.10
2022-08-12T06:30:15.918Z,1012.13
2022-08-12T06:31:27.237Z,1012.13
2022-08-12T06:32:10.449Z,1012.11
2022-08-12T06:33:22.202Z,1012.19
2022-08-12T06:35:22.508Z,1012.12
2022-08-12T06:35:47.025Z,1012.13
2022-08-12T06:36:10.381Z,1012.10
2022-08-12T06:37:10.351Z,1012.09
2022-08-12T06:38:10.349Z,1012.08
2022-08-12T06:39:14.611Z,1012.08
2022-08-12T06:40:10.375Z,1012.05
2022-08-12T06:41:10.424Z,1012.06
2022-08-12T06:42:32.123Z,1012.08
2022-08-12T06:43:10.501Z,1012.07
2022-08-12T06:44:10.321Z,1012.07
2022-08-12T06:45:12.379Z,1012.06
2022-08-12T06:46:10.731Z,1012.07
2022-08-12T06:47:10.838Z,1012.01
2022-08-12T06:48:10.217Z,1012.01
2022-08-12T06:49:10.315Z,1012.02
2022-08-12T06:50:10.223Z,1012.01
2022-08-12T06:51:10.211Z,1011.98
2022-08-12T06:52:10.173Z,1011.98
2022-08-12T06:53:10.223Z,1012.00
2022-08-12T06:54:10.177Z,1011.99
2022-08-12T06:55:10.870Z,1011.96
2022-08-12T06:56:12.512Z,1011.98
2022-08-12T06:58:05.311Z,1011.98
2022-08-12T06:58:13.394Z,1012.02
2022-08-12T06:59:10.173Z,1012.03
2022-08-12T07:00:10.678Z,1012.00
2022-08-12T07:01:10.835Z,1012.06
2022-08-12T07:02:11.607Z,1012.05
2022-08-12T07:03:22.923Z,1012.08
2022-08-12T07:04:33.771Z,1012.09
2022-08-12T07:05:10.341Z,1012.10
2022-08-12T07:06:10.201Z,1012.12
2022-08-12T07:07:11.036Z,1012.09
2022-08-12T07:08:10.559Z,1012.03
2022-08-12T07:09:13.291Z,1012.10
2022-08-12T07:10:10.017Z,1012.11
2022-08-12T07:11:10.031Z,1012.09
2022-08-12T07:12:10.182Z,1012.05
2022-08-12T07:13:10.287Z,1012.12
2022-08-12T07:14:14.271Z,1012.07
2022-08-12T07:15:10.168Z,1012.08
2022-08-12T07:16:10.088Z,1012.12
2022-08-12T07:17:10.257Z,1012.11
2022-08-12T07:18:09.971Z,1012.14
2022-08-12T07:19:10.518Z,1012.14
2022-08-12T07:20:11.673Z,1012.16
2022-08-12T07:21:09.909Z,1012.15
2022-08-12T07:22:09.908Z,1012.12
2022-08-12T07:23:09.920Z,1012.10
2022-08-12T07:24:09.819Z,1012.11
2022-08-12T07:25:09.839Z,1012.09
2022-08-12T07:26:10.026Z,1012.14
2022-08-12T07:27:09.865Z,1012.10
2022-08-12T07:28:16.957Z,1012.09
2022-08-12T07:29:09.878Z,1012.10
2022-08-12T07:30:09.949Z,1012.11
2022-08-12T07:31:09.773Z,1012.10
2022-08-12T07:32:09.778Z,1012.17
2022-08-12T07:33:09.731Z,1012.17
2022-08-12T07:34:09.716Z,1012.14
2022-08-12T07:35:09.875Z,1012.17
2022-08-12T07:36:09.724Z,1012.18
2022-08-12T07:37:09.684Z,1012.17
2022-08-12T07:38:09.700Z,1012.23
2022-08-12T07:39:09.695Z,1012.21
2022-08-12T07:40:09.733Z,1012.24
2022-08-12T07:41:15.488Z,1012.26
2022-08-12T07:42:09.662Z,1012.21
2022-08-12T07:43:09.663Z,1012.22
2022-08-12T07:44:09.625Z,1012.25
2022-08-12T07:45:09.619Z,1012.24
2022-08-12T07:46:09.657Z,1012.26
2022-08-12T07:47:09.608Z,1012.23
2022-08-12T07:48:09.613Z,1012.29
2022-08-12T07:49:09.561Z,1012.27
2022-08-12T07:50:09.568Z,1012.30
2022-08-12T07:51:09.722Z,1012.35
2022-08-12T07:52:09.747Z,1012.33
2022-08-12T07:53:09.624Z,1012.29
2022-08-12T07:54:09.520Z,1012.26
2022-08-12T07:55:09.575Z,1012.29
2022-08-12T07:56:09.521Z,1012.26
2022-08-12T07:57:09.556Z,1012.27
2022-08-12T07:58:09.833Z,1012.25
2022-08-12T07:59:09.658Z,1012.25
2022-08-12T08:00:09.618Z,1012.23
2022-08-12T08:01:12.058Z,1012.26
2022-08-12T08:02:09.649Z,1012.25
2022-08-12T08:03:09.528Z,1012.26
2022-08-12T08:04:09.455Z,1012.23
2022-08-12T08:05:09.388Z,1012.21
2022-08-12T08:06:09.808Z,1012.24
2022-08-12T08:07:09.516Z,1012.22
2022-08-12T08:08:09.382Z,1012.25
2022-08-12T08:09:09.893Z,1012.30
2022-08-12T08:10:09.338Z,1012.28
2022-08-12T08:11:10.092Z,1012.26
2022-08-12T08:12:09.305Z,1012.25
2022-08-12T08:13:09.361Z,1012.30
2022-08-12T08:14:09.309Z,1012.29
2022-08-12T08:15:09.504Z,1012.27
2022-08-12T08:16:09.412Z,1012.29
2022-08-12T08:17:09.472Z,1012.32
2022-08-12T08:19:29.415Z,1012.33
2022-08-12T08:20:29.478Z,1012.31
2022-08-12T08:21:29.787Z,1012.36
2022-08-12T08:22:40.605Z,1012.34
2022-08-12T08:23:35.199Z,1012.32
2022-08-12T08:24:29.611Z,1012.32
2022-08-12T08:25:36.500Z,1012.32
2022-08-12T08:26:29.534Z,1012.32
2022-08-12T08:27:29.392Z,1012.32
2022-08-12T08:28:29.486Z,1012.30
2022-08-12T08:29:30.600Z,1012.29
2022-08-12T08:30:29.233Z,1012.29
2022-08-12T08:31:29.371Z,1012.28
2022-08-12T08:32:29.219Z,1012.28
2022-08-12T08:34:09.140Z,1012.26
2022-08-12T08:34:54.150Z,1012.28
2022-08-12T08:35:47.011Z,1012.25
2022-08-12T08:36:29.263Z,1012.28
2022-08-12T08:37:32.971Z,1012.22
2022-08-12T08:38:33.343Z,1012.20
2022-08-12T08:39:29.167Z,1012.22
2022-08-12T08:40:29.176Z,1012.25
2022-08-12T08:42:17.784Z,1012.21
2022-08-12T08:42:29.171Z,1012.26
2022-08-12T08:43:43.810Z,1012.26
2022-08-12T08:44:29.071Z,1012.26
2022-08-12T08:45:29.144Z,1012.28
2022-08-12T08:46:29.077Z,1012.23
2022-08-12T08:47:29.056Z,1012.27
2022-08-12T08:48:29.105Z,1012.20
2022-08-12T08:49:29.043Z,1012.22
2022-08-12T08:50:29.030Z,1012.24
2022-08-12T08:51:29.017Z,1012.20
2022-08-12T08:52:39.713Z,1012.24
2022-08-12T08:53:28.959Z,1012.20
2022-08-12T08:54:28.963Z,1012.21
2022-08-12T08:55:48.065Z,1012.21
2022-08-12T08:56:28.960Z,1012.24
2022-08-12T08:57:44.181Z,1012.24
2022-08-12T08:58:28.928Z,1012.25
2022-08-12T08:59:28.920Z,1012.26
2022-08-12T09:00:28.934Z,1012.27
2022-08-12T09:28:50.005Z,1012.23
2022-08-12T09:28:58.259Z,1012.03
2022-08-12T09:30:10.896Z,1012.03
2022-08-12T09:30:59.042Z,1012.05
2022-08-12T09:32:07.652Z,1012.04
2022-08-12T09:33:14.777Z,1012.04
2022-08-12T09:34:26.846Z,1012.07
2022-08-12T09:34:58.222Z,1012.05
2022-08-12T09:36:05.021Z,1012.08
2022-08-12T09:37:01.567Z,1012.08
2022-08-12T09:38:00.800Z,1012.10
2022-08-12T09:38:59.157Z,1012.07
2022-08-12T09:40:05.338Z,1012.09
2022-08-12T09:42:08.475Z,1012.08
2022-08-12T09:42:49.242Z,1012.02
2022-08-12T09:43:15.304Z,1012.03
2022-08-12T09:44:01.187Z,1012.01
2022-08-12T09:45:18.230Z,1011.98
2022-08-12T09:46:11.146Z,1011.96
2022-08-12T09:46:58.117Z,1011.96
2022-08-12T09:47:59.315Z,1011.95
2022-08-12T09:48:58.028Z,1011.97
2022-08-12T09:49:58.926Z,1012.00
2022-08-12T09:51:00.095Z,1012.01
2022-08-12T09:51:57.977Z,1011.98
2022-08-12T09:53:03.910Z,1012.02
2022-08-12T09:54:08.574Z,1012.01
2022-08-12T09:55:02.500Z,1011.98
2022-08-12T09:56:06.065Z,1011.95
2022-08-12T09:58:46.788Z,1011.92
2022-08-12T09:59:03.988Z,1011.91
2022-08-12T09:59:09.869Z,1011.95
2022-08-12T10:00:17.507Z,1011.92
2022-08-12T10:01:15.201Z,1011.89
2022-08-12T10:02:45.637Z,1011.90
2022-08-12T10:03:31.405Z,1011.87
2022-08-12T10:04:09.886Z,1011.92
2022-08-12T10:05:13.329Z,1011.90
2022-08-12T10:06:19.604Z,1011.90
2022-08-12T10:07:13.046Z,1011.89
2022-08-12T10:08:09.745Z,1011.87
2022-08-12T10:09:09.775Z,1011.85
2022-08-12T10:10:23.952Z,1011.86
2022-08-12T10:11:09.734Z,1011.83
2022-08-12T10:12:12.855Z,1011.83
2022-08-12T10:13:12.140Z,1011.87
2022-08-12T10:14:13.367Z,1011.85
2022-08-12T10:15:25.012Z,1011.75
2022-08-12T10:16:18.723Z,1011.76
2022-08-12T10:17:09.647Z,1011.77
2022-08-12T10:18:09.822Z,1011.74
2022-08-12T10:19:17.688Z,1011.75
2022-08-12T10:20:09.737Z,1011.72
2022-08-12T10:21:09.611Z,1011.72
2022-08-12T10:22:17.185Z,1011.76
2022-08-12T10:23:09.602Z,1011.71
2022-08-12T10:24:10.460Z,1011.73
2022-08-12T10:25:17.570Z,1011.65
2022-08-12T10:26:36.245Z,1011.66
2022-08-12T10:27:14.441Z,1011.64
2022-08-12T10:28:16.326Z,1011.63
2022-08-12T10:30:01.337Z,1011.59
2022-08-12T10:30:54.657Z,1011.58
2022-08-12T10:31:16.090Z,1011.63
2022-08-12T10:32:20.853Z,1011.63
2022-08-12T10:33:18.945Z,1011.54
2022-08-12T10:34:14.923Z,1011.54
2022-08-12T10:35:09.589Z,1011.52
2022-08-12T10:36:09.461Z,1011.52
2022-08-12T10:37:22.746Z,1011.56
2022-08-12T10:38:41.561Z,1011.57
2022-08-12T10:39:44.280Z,1011.53
2022-08-12T10:40:11.395Z,1011.52
2022-08-12T10:41:19.055Z,1011.49
2022-08-12T10:42:09.497Z,1011.52
2022-08-12T10:44:43.268Z,1011.48
2022-08-12T10:45:43.672Z,1011.42
2022-08-12T10:46:45.913Z,1011.39
2022-08-12T10:48:15.973Z,1011.40
2022-08-12T10:50:28.134Z,1011.42
2022-08-12T10:52:04.707Z,1011.40
2022-08-12T10:52:38.812Z,1011.43
2022-08-12T10:53:11.312Z,1011.40
2022-08-12T10:54:10.722Z,1011.43
2022-08-12T10:55:13.337Z,1011.37
2022-08-12T10:56:10.322Z,1011.43
2022-08-12T10:57:18.460Z,1011.42
2022-08-12T10:58:28.404Z,1011.35
2022-08-12T10:59:10.786Z,1011.36
2022-08-12T11:00:34.945Z,1011.31
2022-08-12T11:04:27.681Z,1011.22
2022-08-12T11:04:49.220Z,1011.24
2022-08-12T11:04:55.084Z,1011.23
2022-08-12T11:07:09.299Z,1011.23
2022-08-12T11:08:43.425Z,1011.25
2022-08-12T11:08:49.055Z,1011.24
2022-08-12T11:10:00.280Z,1011.17
2022-08-12T11:10:49.874Z,1011.13
2022-08-12T11:12:35.672Z,1011.20
2022-08-12T11:13:03.585Z,1011.15
2022-08-12T11:13:49.333Z,1011.16
2022-08-12T11:14:51.417Z,1011.14
2022-08-12T11:16:18.952Z,1011.14
2022-08-12T11:17:35.019Z,1011.13
2022-08-12T11:17:52.970Z,1011.10
2022-08-12T11:18:48.791Z,1011.11
2022-08-12T11:19:49.616Z,1011.09
2022-08-12T11:20:49.272Z,1011.10
2022-08-12T11:21:58.467Z,1011.10
2022-08-12T11:22:49.413Z,1011.02
2022-08-12T11:23:53.613Z,1011.01
2022-08-12T11:24:51.445Z,1011.03
2022-08-12T11:25:58.079Z,1011.05
2022-08-12T11:26:48.772Z,1011.05
2022-08-12T11:27:51.373Z,1011.09
2022-08-12T11:28:59.051Z,1011.01
2022-08-12T11:30:05.566Z,1011.08
2022-08-12T11:30:48.735Z,1011.07
2022-08-12T11:32:02.001Z,1011.02
2022-08-12T11:32:48.719Z,1010.97
2022-08-12T11:34:04.503Z,1010.90
2022-08-12T11:36:45.375Z,1010.91
2022-08-12T11:37:58.810Z,1010.93
2022-08-12T11:38:50.530Z,1010.89
2022-08-12T11:40:03.146Z,1010.90
2022-08-12T11:40:46.315Z,1010.92
2022-08-12T11:41:46.289Z,1010.90
2022-08-12T11:42:47.232Z,1010.91
2022-08-12T11:43:50.588Z,1010.87
2022-08-12T11:44:46.231Z,1010.88
2022-08-12T11:45:47.153Z,1010.86
2022-08-12T11:46:46.206Z,1010.87
2022-08-12T11:47:46.275Z,1010.85
2022-08-12T11:48:51.522Z,1010.94
2022-08-12T11:49:49.884Z,1010.91
2022-08-12T11:50:47.162Z,1010.85
2022-08-12T11:51:46.275Z,1010.91
2022-08-12T11:52:55.457Z,1010.88
2022-08-12T11:53:59.458Z,1010.81
2022-08-12T11:54:50.965Z,1010.78
2022-08-12T11:55:46.957Z,1010.82
2022-08-12T11:56:52.390Z,1010.80
2022-08-12T11:58:14.354Z,1010.76
2022-08-12T12:02:02.998Z,1010.72
2022-08-12T12:02:38.490Z,1010.73
2022-08-12T12:03:45.624Z,1010.73
2022-08-12T12:04:38.438Z,1010.74
2022-08-12T12:05:41.760Z,1010.78
2022-08-12T12:06:38.368Z,1010.65
2022-08-12T12:08:41.309Z,1010.73
2022-08-12T12:08:51.628Z,1010.71
2022-08-12T12:09:52.678Z,1010.64
2022-08-12T12:10:38.667Z,1010.73
2022-08-12T12:11:48.689Z,1010.67
2022-08-12T12:12:38.417Z,1010.77
2022-08-12T12:14:08.125Z,1010.74
2022-08-12T12:14:39.217Z,1010.70
2022-08-12T12:15:40.765Z,1010.76
2022-08-12T12:16:40.067Z,1010.74
2022-08-12T12:17:38.762Z,1010.74
2022-08-12T12:18:38.255Z,1010.70
2022-08-12T12:19:45.514Z,1010.65
2022-08-12T12:20:38.388Z,1010.68
2022-08-12T12:21:47.172Z,1010.63
2022-08-12T12:22:38.244Z,1010.62
2022-08-12T12:23:38.187Z,1010.66
2022-08-12T12:24:38.184Z,1010.65
2022-08-12T12:26:06.387Z,1010.62
2022-08-12T12:26:38.507Z,1010.66
2022-08-12T12:28:00.672Z,1010.60
2022-08-12T12:28:39.700Z,1010.58
2022-08-12T12:30:19.121Z,1010.63
2022-08-12T12:30:38.183Z,1010.62
2022-08-12T12:32:11.153Z,1010.58
2022-08-12T12:32:38.110Z,1010.62
2022-08-12T12:33:57.192Z,1010.62
2022-08-12T12:34:38.096Z,1010.56
2022-08-12T12:36:18.695Z,1010.51
2022-08-12T12:36:38.291Z,1010.59
2022-08-12T12:38:03.252Z,1010.58
2022-08-12T12:38:38.030Z,1010.48
2022-08-12T12:39:54.597Z,1010.45
2022-08-12T12:40:39.823Z,1010.42
2022-08-12T12:42:54.481Z,1010.41
2022-08-12T12:43:05.125Z,1010.46
2022-08-12T12:43:43.609Z,1010.43